createdAt,value
2018-09-04T00:01:45.911Z,35.08
2018-09-04T00:04:14.241Z,34.40
2018-09-04T00:06:42.525Z,33.02
2018-09-04T00:09:10.813Z,33.13
2018-09-04T00:11:39.283Z,34.98
2018-09-04T00:14:08.020Z,34.47
2018-09-04T00:16:36.341Z,34.73
2018-09-04T00:19:04.681Z,33.63
2018-09-04T00:21:32.979Z,34.60
2018-09-04T00:24:01.751Z,37.30
2018-09-04T00:26:30.090Z,34.45
2018-09-04T00:28:58.476Z,33.73
2018-09-04T00:31:26.816Z,34.95
2018-09-04T00:33:55.109Z,34.95
2018-09-04T00:36:23.639Z,33.48
2018-09-04T00:38:51.913Z,35.57
2018-09-04T00:41:20.439Z,34.87
2018-09-04T00:43:48.735Z,33.75
2018-09-04T00:46:17.207Z,33.60
2018-09-04T00:48:45.503Z,34.18
2018-09-04T00:51:13.809Z,32.90
2018-09-04T00:53:42.133Z,33.10
2018-09-04T00:56:10.420Z,35.05
2018-09-04T00:58:38.693Z,35.80
2018-09-04T01:01:07.183Z,36.00
2018-09-04T01:03:35.537Z,34.78
2018-09-04T01:06:03.962Z,34.80
2018-09-04T01:08:32.295Z,35.38
2018-09-04T01:11:00.637Z,36.03
2018-09-04T01:13:28.954Z,36.85
2018-09-04T01:15:57.236Z,37.28
2018-09-04T01:18:25.551Z,36.80
2018-09-04T01:20:53.936Z,35.58
2018-09-04T01:23:22.255Z,35.83
2018-09-04T01:25:50.560Z,34.03
2018-09-04T01:28:18.873Z,34.90
2018-09-04T01:30:47.332Z,35.20
2018-09-04T01:33:15.749Z,36.40
2018-09-04T01:35:44.034Z,39.27
2018-09-04T01:38:12.440Z,38.53
2018-09-04T01:40:40.761Z,38.80
2018-09-04T01:43:09.065Z,41.70
2018-09-04T01:45:37.354Z,40.00
2018-09-04T01:48:05.756Z,38.83
2018-09-04T01:50:34.090Z,39.40
2018-09-04T01:53:02.405Z,40.28
2018-09-04T01:55:30.682Z,38.65
2018-09-04T01:57:59.023Z,39.60
2018-09-04T02:00:27.312Z,40.63
2018-09-04T02:02:55.612Z,41.02
2018-09-04T02:05:23.933Z,39.10
2018-09-04T02:07:52.281Z,40.95
2018-09-04T02:10:20.604Z,40.45
2018-09-04T02:12:48.942Z,40.40
2018-09-04T02:15:17.273Z,39.00
2018-09-04T02:17:45.592Z,40.17
2018-09-04T02:20:14.019Z,38.38
2018-09-04T02:22:42.371Z,38.70
2018-09-04T02:25:10.746Z,39.80
2018-09-04T02:27:39.325Z,39.05
2018-09-04T02:30:07.675Z,40.30
2018-09-04T02:32:36.041Z,40.60
2018-09-04T02:35:04.314Z,40.63
2018-09-04T02:37:32.775Z,42.60
2018-09-04T02:40:01.040Z,42.03
2018-09-04T02:42:29.335Z,42.60
2018-09-04T02:44:57.616Z,40.93
2018-09-04T02:47:25.932Z,42.13
2018-09-04T02:49:54.239Z,41.00
2018-09-04T02:52:22.522Z,41.97
2018-09-04T02:54:50.785Z,42.03
2018-09-04T02:57:19.107Z,42.20
2018-09-04T02:59:47.442Z,40.50
2018-09-04T03:02:15.755Z,42.37
2018-09-04T03:04:44.089Z,41.67
2018-09-04T03:07:12.405Z,40.10
2018-09-04T03:09:40.720Z,40.57
2018-09-04T03:12:09.099Z,42.93
2018-09-04T03:14:37.413Z,42.38
2018-09-04T03:17:05.854Z,42.00
2018-09-04T03:19:34.153Z,41.80
2018-09-04T03:22:02.464Z,42.73
2018-09-04T03:24:30.909Z,42.90
2018-09-04T03:26:59.169Z,43.13
2018-09-04T03:29:27.458Z,42.23
2018-09-04T03:31:55.787Z,41.58
2018-09-04T03:34:24.094Z,40.80
2018-09-04T03:36:52.425Z,41.00
2018-09-04T03:39:20.748Z,42.03
2018-09-04T03:41:49.041Z,42.23
2018-09-04T03:44:17.386Z,41.25
2018-09-04T03:46:45.732Z,40.67
2018-09-04T03:49:14.051Z,41.75
2018-09-04T03:51:42.385Z,42.65
2018-09-04T03:54:10.673Z,41.95
2018-09-04T03:56:38.975Z,41.68
2018-09-04T03:59:07.265Z,42.58
2018-09-04T04:01:35.625Z,41.37
2018-09-04T04:04:03.890Z,42.58
2018-09-04T04:06:32.182Z,41.10
2018-09-04T04:09:00.470Z,41.83
2018-09-04T04:11:28.780Z,43.65
2018-09-04T04:13:57.077Z,42.17
2018-09-04T04:16:25.423Z,43.10
2018-09-04T04:18:54.158Z,43.25
2018-09-04T04:21:22.454Z,42.00
2018-09-04T04:23:50.903Z,43.20
2018-09-04T04:26:19.163Z,43.40
2018-09-04T04:28:47.440Z,41.67
2018-09-04T04:31:15.732Z,43.27
2018-09-04T04:33:44.047Z,41.90
2018-09-04T04:36:12.306Z,42.13
2018-09-04T04:38:40.727Z,40.70
2018-09-04T04:41:09.006Z,43.40
2018-09-04T04:43:37.354Z,40.75
2018-09-04T04:46:05.663Z,44.90
2018-09-04T04:48:33.987Z,41.60
2018-09-04T04:51:02.308Z,42.83
2018-09-04T04:53:30.725Z,41.00
2018-09-04T04:55:59.041Z,42.65
2018-09-04T04:58:27.358Z,41.60
2018-09-04T05:00:55.682Z,42.98
2018-09-04T05:03:23.972Z,44.48
2018-09-04T05:05:52.279Z,45.03
2018-09-04T05:08:20.601Z,45.00
2018-09-04T05:10:48.917Z,45.65
2018-09-04T05:13:17.327Z,47.27
2018-09-04T05:15:45.623Z,46.53
2018-09-04T05:18:13.925Z,45.60
2018-09-04T05:20:42.254Z,45.65
2018-09-04T05:23:10.582Z,44.65
2018-09-04T05:25:38.897Z,46.70
2018-09-04T05:28:07.247Z,45.40
2018-09-04T05:30:35.553Z,45.55
2018-09-04T05:33:09.333Z,45.73
2018-09-04T05:35:41.237Z,43.15
2018-09-04T05:38:09.555Z,43.10
2018-09-04T05:40:37.939Z,43.10
2018-09-04T05:43:08.041Z,43.30
2018-09-04T05:45:37.249Z,41.90
2018-09-04T05:48:13.780Z,41.45
2018-09-04T05:50:42.216Z,40.83
2018-09-04T05:53:10.624Z,39.13
2018-09-04T05:55:38.919Z,40.77
2018-09-04T05:58:07.275Z,39.20
2018-09-04T06:00:45.018Z,39.65
2018-09-04T06:03:13.326Z,41.80
2018-09-04T06:05:41.708Z,41.15
2018-09-04T06:08:10.006Z,39.83
2018-09-04T06:10:38.309Z,42.90
2018-09-04T06:13:06.677Z,41.53
2018-09-04T06:15:35.028Z,40.23
2018-09-04T06:18:03.352Z,39.25
2018-09-04T06:20:31.655Z,37.65
2018-09-04T06:22:59.991Z,38.73
2018-09-04T06:25:28.486Z,38.73
2018-09-04T06:27:56.829Z,39.00
2018-09-04T06:30:25.207Z,40.00
2018-09-04T06:32:53.514Z,38.20
2018-09-04T06:35:21.843Z,39.33
2018-09-04T06:37:50.160Z,38.90
2018-09-04T06:40:18.481Z,39.47
2018-09-04T06:42:46.791Z,39.20
2018-09-04T06:45:15.159Z,39.70
2018-09-04T06:47:43.514Z,39.23
2018-09-04T06:50:11.935Z,40.13
2018-09-04T06:52:40.240Z,40.70
2018-09-04T06:55:08.569Z,40.90
2018-09-04T06:57:36.876Z,40.67
2018-09-04T07:00:06.770Z,41.00
2018-09-04T07:02:35.104Z,42.30
2018-09-04T07:05:03.441Z,43.50
2018-09-04T07:07:31.773Z,46.33
2018-09-04T07:10:00.089Z,46.35
2018-09-04T07:12:28.425Z,46.85
2018-09-04T07:14:56.737Z,48.92
2018-09-04T07:17:25.056Z,46.80
2018-09-04T07:19:53.394Z,47.50
2018-09-04T07:22:21.958Z,49.25
2018-09-04T07:24:50.257Z,50.45
2018-09-04T07:27:18.549Z,53.02
2018-09-04T07:29:46.884Z,52.48
2018-09-04T07:32:15.247Z,51.98
2018-09-04T07:34:43.750Z,51.88
2018-09-04T07:37:12.023Z,51.68
2018-09-04T07:39:40.356Z,54.67
2018-09-04T07:42:08.792Z,53.35
2018-09-04T07:44:37.119Z,53.58
2018-09-04T07:47:05.701Z,52.88
2018-09-04T07:49:33.993Z,53.90
2018-09-04T07:52:02.307Z,52.75
2018-09-04T07:54:30.612Z,53.23
2018-09-04T07:56:58.936Z,56.25
2018-09-04T07:59:27.279Z,55.25
2018-09-04T08:01:55.590Z,54.48
2018-09-04T08:04:23.917Z,54.60
2018-09-04T08:06:52.804Z,53.33
2018-09-04T08:09:21.140Z,55.17
2018-09-04T08:11:49.457Z,53.27
2018-09-04T08:14:17.762Z,58.92
2018-09-04T08:16:46.069Z,56.65
2018-09-04T08:19:14.448Z,59.20
2018-09-04T08:21:43.131Z,58.42
2018-09-04T08:24:11.428Z,56.90
2018-09-04T08:26:39.740Z,58.70
2018-09-04T08:29:08.037Z,58.55
2018-09-04T08:31:36.321Z,60.17
2018-09-04T08:34:04.654Z,63.08
2018-09-04T08:36:33.099Z,60.28
2018-09-04T08:39:01.589Z,60.17
2018-09-04T08:41:29.876Z,60.48
2018-09-04T08:43:58.347Z,60.92
2018-09-04T08:46:26.654Z,58.85
2018-09-04T08:48:55.019Z,60.45
2018-09-04T08:51:23.361Z,59.13
2018-09-04T08:53:51.669Z,63.75
2018-09-04T08:56:20.026Z,63.35
2018-09-04T08:58:48.335Z,65.37
2018-09-04T09:01:16.712Z,66.77
2018-09-04T09:03:45.132Z,64.97
2018-09-04T09:06:13.440Z,68.83
2018-09-04T09:08:42.049Z,66.12
2018-09-04T09:11:10.489Z,67.30
2018-09-04T09:13:38.816Z,68.65
2018-09-04T09:16:07.342Z,67.60
2018-09-04T09:18:35.712Z,67.85
2018-09-04T09:21:04.055Z,68.62
2018-09-04T09:23:32.444Z,66.50
2018-09-04T09:26:00.769Z,66.77
2018-09-04T09:28:29.157Z,69.07
2018-09-04T09:30:57.501Z,70.00
2018-09-04T09:33:25.824Z,68.92
2018-09-04T09:35:54.165Z,69.20
2018-09-04T09:38:22.500Z,72.00
2018-09-04T09:40:50.911Z,67.00
2018-09-04T09:43:19.220Z,67.70
2018-09-04T09:45:47.528Z,66.30
2018-09-04T09:48:15.825Z,67.53
2018-09-04T09:50:44.149Z,66.60
2018-09-04T09:53:12.566Z,67.37
2018-09-04T09:55:40.849Z,66.30
2018-09-04T09:58:09.147Z,69.77
2018-09-04T10:00:42.889Z,70.37
2018-09-04T10:03:16.343Z,66.55
2018-09-04T10:05:44.732Z,64.82
2018-09-04T10:08:13.052Z,63.25
2018-09-04T10:10:41.404Z,62.60
2018-09-04T10:13:09.846Z,59.27
2018-09-04T10:15:38.160Z,63.58
2018-09-04T10:18:06.480Z,60.43
2018-09-04T10:20:34.790Z,60.00
2018-09-04T10:23:03.135Z,61.67
2018-09-04T10:25:31.455Z,60.23
2018-09-04T10:27:59.754Z,66.82
2018-09-04T10:30:28.068Z,63.05
2018-09-04T10:32:56.370Z,65.00
2018-09-04T10:35:24.685Z,61.63
2018-09-04T10:37:53.002Z,57.23
2018-09-04T10:40:26.595Z,54.80
2018-09-04T10:42:54.914Z,55.50
2018-09-04T10:45:28.929Z,52.93
2018-09-04T10:47:57.316Z,50.30
2018-09-04T10:50:25.681Z,50.40
2018-09-04T10:52:54.016Z,51.20
2018-09-04T10:55:22.359Z,53.02
2018-09-04T10:57:50.850Z,51.55
2018-09-04T11:00:19.107Z,45.83
2018-09-04T11:02:47.431Z,45.05
2018-09-04T11:05:15.745Z,43.83
2018-09-04T11:07:44.080Z,47.58
2018-09-04T11:10:12.426Z,45.30
2018-09-04T11:12:40.829Z,47.93
2018-09-04T11:15:09.145Z,45.80
2018-09-04T11:17:37.428Z,47.45
2018-09-04T11:20:05.782Z,47.45
2018-09-04T11:22:34.091Z,46.20
2018-09-04T11:25:02.440Z,44.27
2018-09-04T11:27:30.749Z,45.92
2018-09-04T11:29:59.038Z,46.15
2018-09-04T11:32:27.427Z,45.37
2018-09-04T11:34:55.765Z,43.70
2018-09-04T11:37:24.093Z,42.30
2018-09-04T11:39:52.501Z,39.30
2018-09-04T11:42:20.834Z,42.43
2018-09-04T11:44:49.150Z,39.03
2018-09-04T11:47:17.504Z,37.50
2018-09-04T11:49:45.831Z,37.33
2018-09-04T11:52:14.184Z,35.85
2018-09-04T11:54:42.479Z,35.98
2018-09-04T11:57:10.820Z,29.60
2018-09-04T11:59:40.600Z,27.57
2018-09-04T12:02:12.882Z,25.10
2018-09-04T12:04:41.215Z,27.95
2018-09-04T12:07:09.887Z,25.13
2018-09-04T12:09:38.240Z,26.62
2018-09-04T12:12:06.552Z,28.55
2018-09-04T12:14:36.786Z,27.80
2018-09-04T12:17:07.211Z,30.60
2018-09-04T12:19:42.979Z,32.33
2018-09-04T12:22:11.283Z,28.50
2018-09-04T12:24:39.602Z,29.02
2018-09-04T12:27:07.908Z,28.98
2018-09-04T12:29:36.228Z,30.85
2018-09-04T12:32:04.532Z,30.55
2018-09-04T12:34:32.876Z,28.85
2018-09-04T12:37:01.246Z,33.17
2018-09-04T12:39:29.587Z,27.90
2018-09-04T12:41:57.902Z,26.45
2018-09-04T12:44:26.235Z,30.72
2018-09-04T12:46:54.578Z,25.65
2018-09-04T12:49:22.920Z,25.82
2018-09-04T12:51:51.261Z,23.25
2018-09-04T12:54:19.618Z,21.85
2018-09-04T12:56:47.981Z,21.33
2018-09-04T12:59:16.317Z,22.37
2018-09-04T13:01:44.632Z,24.60
2018-09-04T13:04:12.914Z,23.15
2018-09-04T13:06:41.339Z,22.87
2018-09-04T13:09:09.720Z,22.45
2018-09-04T13:11:38.013Z,21.80
2018-09-04T13:14:06.639Z,25.60
2018-09-04T13:16:35.114Z,25.30
2018-09-04T13:19:03.554Z,24.02
2018-09-04T13:21:31.911Z,22.82
2018-09-04T13:24:00.339Z,25.27
2018-09-04T13:26:28.632Z,26.80
2018-09-04T13:28:56.941Z,26.87
2018-09-04T13:31:25.292Z,23.98
2018-09-04T13:33:53.600Z,23.50
2018-09-04T13:36:21.942Z,23.32
2018-09-04T13:38:50.236Z,28.40
2018-09-04T13:41:18.533Z,22.32
2018-09-04T13:43:46.835Z,25.68
2018-09-04T13:46:15.136Z,25.57
2018-09-04T13:48:43.464Z,25.43
2018-09-04T13:51:11.760Z,26.77
2018-09-04T13:53:40.119Z,25.05
2018-09-04T13:56:08.461Z,24.50
2018-09-04T13:58:36.765Z,25.17
2018-09-04T14:01:05.072Z,24.40
2018-09-04T14:03:33.411Z,24.37
2018-09-04T14:06:01.673Z,21.75
2018-09-04T14:08:29.988Z,21.60
2018-09-04T14:10:58.303Z,23.50
2018-09-04T14:13:27.087Z,22.20
2018-09-04T14:15:57.867Z,20.23
2018-09-04T14:18:26.177Z,26.48
2018-09-04T14:20:54.508Z,21.30
2018-09-04T14:23:23.084Z,21.27
2018-09-04T14:25:51.402Z,20.72
2018-09-04T14:28:40.975Z,21.40
2018-09-04T14:30:48.153Z,18.60
2018-09-04T14:33:16.361Z,19.65
2018-09-04T14:35:44.708Z,18.40
2018-09-04T14:38:13.052Z,17.20
2018-09-04T14:40:41.351Z,18.20
2018-09-04T14:43:09.643Z,33.33
2018-09-04T14:45:37.917Z,17.27
2018-09-04T14:48:06.482Z,14.93
2018-09-04T14:50:34.804Z,14.63
2018-09-04T14:53:03.137Z,23.38
2018-09-04T14:55:31.487Z,14.10
2018-09-04T14:57:59.775Z,15.25
2018-09-04T15:00:28.045Z,15.05
2018-09-04T15:02:56.610Z,15.68
2018-09-04T15:05:24.982Z,14.60
2018-09-04T15:07:53.282Z,16.20
2018-09-04T15:10:21.703Z,15.30
2018-09-04T15:12:50.042Z,17.45
2018-09-04T15:15:18.325Z,17.07
2018-09-04T15:17:46.609Z,16.57
2018-09-04T15:20:14.893Z,17.37
2018-09-04T15:22:43.769Z,19.00
2018-09-04T15:25:12.120Z,16.60
2018-09-04T15:27:40.375Z,16.70
2018-09-04T15:30:08.696Z,17.00
2018-09-04T15:32:37.027Z,18.23
2018-09-04T15:35:05.480Z,17.27
2018-09-04T15:37:33.831Z,18.62
2018-09-04T15:40:02.115Z,18.48
2018-09-04T15:42:30.416Z,19.42
2018-09-04T15:44:58.682Z,20.73
2018-09-04T15:47:26.974Z,23.50
2018-09-04T15:49:55.275Z,24.72
2018-09-04T15:52:23.661Z,26.10
2018-09-04T15:54:51.970Z,34.53
2018-09-04T15:57:20.277Z,37.20
2018-09-04T15:59:48.552Z,34.50
2018-09-04T16:02:16.888Z,33.05
2018-09-04T16:04:45.207Z,35.40
2018-09-04T16:07:13.515Z,35.30
2018-09-04T16:09:41.913Z,33.00
2018-09-04T16:12:10.203Z,32.08
2018-09-04T16:14:38.502Z,31.73
2018-09-04T16:17:07.189Z,32.98
2018-09-04T16:19:35.517Z,27.50
2018-09-04T16:22:03.885Z,32.80
2018-09-04T16:24:32.307Z,27.82
2018-09-04T16:27:00.547Z,33.50
2018-09-04T16:29:28.889Z,33.50
2018-09-04T16:31:57.182Z,34.00
2018-09-04T16:34:25.596Z,34.25
2018-09-04T16:36:54.112Z,33.90
2018-09-04T16:39:22.452Z,31.37
2018-09-04T16:41:50.753Z,34.13
2018-09-04T16:44:19.063Z,36.17
2018-09-04T16:46:47.373Z,36.60
2018-09-04T16:49:15.704Z,36.33
2018-09-04T16:51:44.010Z,35.00
2018-09-04T16:54:12.334Z,40.52
2018-09-04T16:56:40.703Z,37.25
2018-09-04T16:59:09.021Z,38.00
2018-09-04T17:01:37.340Z,39.18
2018-09-04T17:04:05.670Z,38.07
2018-09-04T17:06:34.002Z,38.30
2018-09-04T17:09:02.351Z,36.80
2018-09-04T17:11:30.661Z,36.37
2018-09-04T17:13:58.967Z,34.38
2018-09-04T17:16:27.252Z,33.80
2018-09-04T17:18:55.579Z,34.80
2018-09-04T17:21:24.176Z,31.42
2018-09-04T17:23:52.453Z,36.23
2018-09-04T17:26:20.819Z,37.67
2018-09-04T17:28:49.123Z,39.10
2018-09-04T17:31:17.393Z,38.90
2018-09-04T17:33:45.709Z,39.70
2018-09-04T17:36:14.529Z,41.23
2018-09-04T17:38:42.934Z,41.98
2018-09-04T17:41:11.268Z,44.30
2018-09-04T17:43:39.564Z,45.75
2018-09-04T17:46:07.857Z,43.08
2018-09-04T17:48:36.389Z,46.33
2018-09-04T17:51:04.744Z,46.70
2018-09-04T17:53:33.247Z,46.02
2018-09-04T17:56:01.637Z,47.05
2018-09-04T17:58:29.966Z,47.30
2018-09-04T18:00:58.359Z,46.68
2018-09-04T18:03:26.637Z,46.28
2018-09-04T18:05:54.981Z,44.08
2018-09-04T18:08:23.299Z,46.53
2018-09-04T18:10:51.666Z,45.90
2018-09-04T18:13:20.016Z,48.23
2018-09-04T18:15:48.304Z,46.37
2018-09-04T18:18:16.638Z,46.15
2018-09-04T18:20:45.100Z,47.00
2018-09-04T18:23:13.480Z,48.40
2018-09-04T18:25:41.817Z,47.60
2018-09-04T18:28:10.144Z,50.50
2018-09-04T18:30:38.960Z,49.73
2018-09-04T18:33:07.320Z,49.80
2018-09-04T18:35:35.641Z,47.15
2018-09-04T18:38:04.342Z,49.50
2018-09-04T18:40:32.645Z,49.45
2018-09-04T18:43:00.947Z,50.75
2018-09-04T18:45:40.305Z,48.95
2018-09-04T18:48:08.627Z,48.10
2018-09-04T18:50:37.197Z,47.85
2018-09-04T18:53:05.505Z,47.10
2018-09-04T18:55:33.794Z,51.48
2018-09-04T18:58:02.248Z,50.95
2018-09-04T19:00:30.589Z,49.93
2018-09-04T19:02:58.860Z,48.50
2018-09-04T19:05:27.223Z,47.33
2018-09-04T19:07:55.537Z,47.07
2018-09-04T19:10:23.834Z,44.53
2018-09-04T19:12:52.199Z,44.88
2018-09-04T19:15:20.539Z,46.57
2018-09-04T19:17:48.841Z,46.28
2018-09-04T19:20:17.190Z,45.60
2018-09-04T19:22:45.429Z,45.00
2018-09-04T19:25:13.709Z,45.50
2018-09-04T19:27:42.097Z,47.23
2018-09-04T19:30:10.384Z,45.85
2018-09-04T19:32:38.694Z,48.73
2018-09-04T19:35:06.985Z,44.63
2018-09-04T19:37:35.409Z,46.48
2018-09-04T19:40:03.680Z,47.30
2018-09-04T19:42:32.061Z,46.68
2018-09-04T19:45:00.467Z,47.38
2018-09-04T19:47:28.795Z,48.08
2018-09-04T19:49:57.298Z,49.23
2018-09-04T19:52:25.492Z,47.43
2018-09-04T19:54:53.809Z,47.70
2018-09-04T19:57:22.113Z,43.98
2018-09-04T19:59:50.404Z,45.37
2018-09-04T20:02:18.689Z,47.43
2018-09-04T20:04:47.000Z,48.10
2018-09-04T20:07:15.362Z,51.63
2018-09-04T20:09:43.644Z,52.35
2018-09-04T20:12:11.952Z,49.77
2018-09-04T20:14:40.257Z,49.20
2018-09-04T20:17:08.583Z,47.55
2018-09-04T20:19:36.866Z,47.78
2018-09-04T20:22:06.879Z,47.70
2018-09-04T20:24:35.257Z,47.75
2018-09-04T20:27:03.651Z,49.27
2018-09-04T20:29:32.038Z,48.85
2018-09-04T20:32:00.365Z,48.78
2018-09-04T20:34:28.721Z,45.45
2018-09-04T20:36:57.496Z,44.60
2018-09-04T20:39:25.788Z,46.88
2018-09-04T20:41:54.098Z,46.53
2018-09-04T20:44:22.405Z,47.10
2018-09-04T20:46:50.680Z,47.10
2018-09-04T20:49:19.315Z,48.00
2018-09-04T20:51:48.247Z,48.10
2018-09-04T20:54:16.638Z,50.50
2018-09-04T20:56:57.955Z,46.90
2018-09-04T20:59:38.103Z,48.90
2018-09-04T21:02:17.845Z,48.87
2018-09-04T21:04:57.568Z,49.08
2018-09-04T21:07:43.551Z,49.00
2018-09-04T21:10:11.865Z,51.40
2018-09-04T21:12:40.154Z,50.20
2018-09-04T21:15:08.462Z,47.50
2018-09-04T21:17:36.760Z,50.70
2018-09-04T21:20:05.163Z,52.00
2018-09-04T21:22:33.516Z,52.43
2018-09-04T21:25:01.883Z,48.75
2018-09-04T21:27:30.266Z,50.03
2018-09-04T21:29:58.630Z,48.23
2018-09-04T21:32:26.949Z,47.70
2018-09-04T21:34:55.226Z,48.40
2018-09-04T21:37:23.699Z,49.73
2018-09-04T21:39:52.029Z,49.93
2018-09-04T21:42:20.331Z,50.07
2018-09-04T21:44:48.609Z,48.63
2018-09-04T21:47:16.968Z,48.03
2018-09-04T21:49:45.336Z,51.00
2018-09-04T21:52:13.697Z,49.60
2018-09-04T21:54:42.015Z,48.00
2018-09-04T21:57:10.344Z,49.15
2018-09-04T21:59:38.652Z,48.10
2018-09-04T22:02:06.929Z,46.58
2018-09-04T22:04:35.228Z,48.68
2018-09-04T22:07:03.802Z,48.45
2018-09-04T22:09:36.422Z,47.38
2018-09-04T22:12:05.576Z,47.87
2018-09-04T22:14:34.096Z,48.20
2018-09-04T22:17:02.460Z,49.13
2018-09-04T22:19:30.957Z,47.73
2018-09-04T22:21:59.246Z,49.00
2018-09-04T22:24:30.299Z,47.88
2018-09-04T22:26:58.646Z,46.73
2018-09-04T22:29:27.423Z,47.07
2018-09-04T22:31:55.714Z,47.83
2018-09-04T22:34:24.192Z,47.25
2018-09-04T22:36:52.513Z,47.10
2018-09-04T22:39:20.939Z,49.30
2018-09-04T22:41:49.222Z,50.65
2018-09-04T22:44:17.533Z,48.83
2018-09-04T22:46:46.196Z,48.95
2018-09-04T22:49:14.443Z,46.90
2018-09-04T22:51:42.720Z,47.10
2018-09-04T22:54:11.035Z,49.40
2018-09-04T22:56:39.592Z,49.27
2018-09-04T22:59:08.103Z,48.58
2018-09-04T23:01:36.463Z,44.40
2018-09-04T23:04:04.784Z,44.10
2018-09-04T23:06:33.110Z,41.90
2018-09-04T23:09:01.429Z,42.20
2018-09-04T23:11:29.776Z,43.55
2018-09-04T23:13:58.069Z,44.25
2018-09-04T23:16:26.399Z,42.73
2018-09-04T23:18:54.688Z,42.88
2018-09-04T23:21:23.012Z,44.27
2018-09-04T23:23:51.285Z,41.80
2018-09-04T23:26:19.566Z,42.03
2018-09-04T23:29:25.972Z,42.98
2018-09-04T23:31:54.252Z,44.75
2018-09-04T23:34:22.580Z,46.70
2018-09-04T23:36:50.909Z,43.35
2018-09-04T23:39:19.214Z,43.40
2018-09-04T23:41:47.559Z,43.75
2018-09-04T23:44:15.837Z,46.75
2018-09-04T23:46:44.114Z,47.08
2018-09-04T23:49:12.576Z,46.80
2018-09-04T23:51:40.842Z,48.37
2018-09-04T23:54:09.344Z,48.23
2018-09-04T23:56:37.656Z,47.23
2018-09-04T23:59:06.121Z,45.28
